UAL2211 KEWR-KTPA
Flight info
| Callsign | UAL2211 |
|---|---|
| Flight time | 2h 23m |
| Altitude | 36000 |
| Route | ELVAE NECCK WHITE Q409 PUPYY BAAMF DADES1 |
| Aircraft | B738/M-SDE2E3FGHIRWXY/LB1 |
Departure
| Time | 2026-05-05 00:51 |
|---|---|
| Airport | Newark Liberty International Airport (KEWR) |
Arrival
| Time | 2026-05-05 03:14 |
|---|---|
| Airport | Tampa International Airport (KTPA) |
| Time | Latitude | Longitude | Altitude | Speed | Heading |
|---|---|---|---|---|---|
| 2026-05-05 00:22 | 40.69686 | -74.17510 | 22 ft | 0 kts | 309° |
| 2026-05-05 00:38 | 40.69685 | -74.17508 | 21 ft | 2 kts | 309° |
| 2026-05-05 00:38 | 40.69671 | -74.17486 | 21 ft | 2 kts | 309° |
| 2026-05-05 00:38 | 40.69658 | -74.17463 | 21 ft | 4 kts | 266° |
| 2026-05-05 00:39 | 40.69665 | -74.17437 | 21 ft | 4 kts | 270° |
| 2026-05-05 00:39 | 40.69661 | -74.17422 | 23 ft | 4 kts | 11° |
| 2026-05-05 00:39 | 40.69641 | -74.17438 | 26 ft | 4 kts | 41° |
| 2026-05-05 00:39 | 40.69636 | -74.17444 | 23 ft | 0 kts | 41° |
| 2026-05-05 00:43 | 40.69639 | -74.17440 | 26 ft | 1 kts | 41° |
| 2026-05-05 00:44 | 40.69648 | -74.17430 | 23 ft | 2 kts | 41° |
| 2026-05-05 00:44 | 40.69664 | -74.17412 | 21 ft | 4 kts | 40° |
| 2026-05-05 00:44 | 40.69696 | -74.17375 | 22 ft | 8 kts | 40° |
| 2026-05-05 00:44 | 40.69716 | -74.17308 | 23 ft | 8 kts | 82° |
| 2026-05-05 00:45 | 40.69730 | -74.17238 | 24 ft | 8 kts | 72° |
| 2026-05-05 00:45 | 40.69710 | -74.17177 | 21 ft | 8 kts | 143° |
| 2026-05-05 00:45 | 40.69656 | -74.17139 | 24 ft | 10 kts | 155° |
| 2026-05-05 00:45 | 40.69604 | -74.17082 | 21 ft | 10 kts | 99° |
| 2026-05-05 00:46 | 40.69624 | -74.16987 | 21 ft | 11 kts | 71° |
| 2026-05-05 00:46 | 40.69649 | -74.16891 | 21 ft | 11 kts | 71° |
| 2026-05-05 00:46 | 40.69673 | -74.16797 | 24 ft | 11 kts | 71° |
| 2026-05-05 00:46 | 40.69715 | -74.16721 | 21 ft | 11 kts | 28° |
| 2026-05-05 00:47 | 40.69787 | -74.16676 | 20 ft | 12 kts | 25° |
| 2026-05-05 00:47 | 40.69863 | -74.16627 | 20 ft | 12 kts | 25° |
| 2026-05-05 00:47 | 40.69939 | -74.16579 | 22 ft | 12 kts | 26° |
| 2026-05-05 00:47 | 40.70013 | -74.16532 | 20 ft | 12 kts | 26° |
| 2026-05-05 00:48 | 40.70086 | -74.16485 | 20 ft | 11 kts | 25° |
| 2026-05-05 00:48 | 40.70163 | -74.16469 | 20 ft | 11 kts | 5° |
| 2026-05-05 00:48 | 40.70239 | -74.16462 | 21 ft | 11 kts | 4° |
| 2026-05-05 00:48 | 40.70281 | -74.16398 | 21 ft | 11 kts | 94° |
| 2026-05-05 00:49 | 40.70302 | -74.16308 | 21 ft | 10 kts | 53° |
| 2026-05-05 00:49 | 40.70326 | -74.16244 | 22 ft | 7 kts | 90° |
| 2026-05-05 00:49 | 40.70292 | -74.16206 | 21 ft | 8 kts | 169° |
| 2026-05-05 00:49 | 40.70252 | -74.16220 | 20 ft | 0 kts | 206° |
| 2026-05-05 00:50 | 40.70251 | -74.16220 | 20 ft | 0 kts | 206° |
| 2026-05-05 00:50 | 40.70179 | -74.16266 | 19 ft | 40 kts | 206° |
| 2026-05-05 00:50 | 40.69725 | -74.16553 | 20 ft | 103 kts | 206° |
| 2026-05-05 00:51 | 40.68932 | -74.17063 | 51 ft | 151 kts | 206° |
| 2026-05-05 00:51 | 40.67967 | -74.17662 | 707 ft | 151 kts | 205° |
| 2026-05-05 00:51 | 40.66988 | -74.18348 | 1227 ft | 165 kts | 207° |
| 2026-05-05 00:51 | 40.65934 | -74.18711 | 2104 ft | 157 kts | 189° |
| 2026-05-05 00:52 | 40.64818 | -74.19128 | 2413 ft | 178 kts | 208° |
| 2026-05-05 00:52 | 40.63674 | -74.19888 | 2730 ft | 196 kts | 208° |
| 2026-05-05 00:52 | 40.62394 | -74.20803 | 2869 ft | 217 kts | 210° |
| 2026-05-05 00:52 | 40.61039 | -74.21755 | 3366 ft | 225 kts | 210° |
| 2026-05-05 00:53 | 40.59615 | -74.22827 | 3625 ft | 248 kts | 212° |
| 2026-05-05 00:53 | 40.58103 | -74.24001 | 4289 ft | 255 kts | 212° |
| 2026-05-05 00:53 | 40.56580 | -74.25212 | 5085 ft | 255 kts | 214° |
| 2026-05-05 00:53 | 40.55092 | -74.26475 | 5892 ft | 256 kts | 217° |
| 2026-05-05 00:54 | 40.53599 | -74.27819 | 6536 ft | 262 kts | 218° |
| 2026-05-05 00:54 | 40.52067 | -74.29148 | 7236 ft | 266 kts | 213° |
| 2026-05-05 00:54 | 40.50268 | -74.29894 | 7872 ft | 281 kts | 188° |
| 2026-05-05 00:54 | 40.48288 | -74.29533 | 8438 ft | 297 kts | 160° |
| 2026-05-05 00:55 | 40.46493 | -74.28151 | 9195 ft | 302 kts | 147° |
| 2026-05-05 00:55 | 40.44782 | -74.26566 | 10007 ft | 300 kts | 147° |
| 2026-05-05 00:55 | 40.43032 | -74.24983 | 10419 ft | 313 kts | 149° |
| 2026-05-05 00:55 | 40.41128 | -74.23424 | 10630 ft | 332 kts | 153° |
| 2026-05-05 00:56 | 40.39089 | -74.21865 | 11059 ft | 344 kts | 153° |
| 2026-05-05 00:56 | 40.36977 | -74.20279 | 11387 ft | 359 kts | 153° |
| 2026-05-05 00:56 | 40.34757 | -74.18625 | 11707 ft | 372 kts | 153° |
| 2026-05-05 00:56 | 40.32436 | -74.17124 | 12323 ft | 373 kts | 166° |
| 2026-05-05 00:57 | 40.29908 | -74.16550 | 12984 ft | 366 kts | 185° |
| 2026-05-05 00:57 | 40.27447 | -74.16973 | 13950 ft | 352 kts | 198° |
| 2026-05-05 00:57 | 40.25080 | -74.17761 | 14736 ft | 351 kts | 198° |
| 2026-05-05 00:57 | 40.22665 | -74.18523 | 15158 ft | 363 kts | 197° |
| 2026-05-05 00:58 | 40.20171 | -74.19269 | 15641 ft | 371 kts | 197° |
| 2026-05-05 00:58 | 40.17646 | -74.20026 | 16301 ft | 373 kts | 197° |
| 2026-05-05 00:58 | 40.15098 | -74.20778 | 16884 ft | 379 kts | 197° |
| 2026-05-05 00:58 | 40.12500 | -74.21553 | 17320 ft | 387 kts | 197° |
| 2026-05-05 00:59 | 40.09845 | -74.22310 | 17856 ft | 393 kts | 196° |
| 2026-05-05 00:59 | 40.07178 | -74.23097 | 18515 ft | 392 kts | 198° |
| 2026-05-05 00:59 | 40.04532 | -74.23919 | 19196 ft | 391 kts | 197° |
| 2026-05-05 00:59 | 40.01889 | -74.24823 | 19611 ft | 396 kts | 202° |
| 2026-05-05 01:00 | 39.99355 | -74.26283 | 19929 ft | 397 kts | 215° |
| 2026-05-05 01:00 | 39.97137 | -74.28340 | 20782 ft | 387 kts | 221° |
| 2026-05-05 01:00 | 39.95003 | -74.30451 | 21569 ft | 384 kts | 220° |
| 2026-05-05 01:00 | 39.92841 | -74.32543 | 21900 ft | 393 kts | 220° |
| 2026-05-05 01:01 | 39.90607 | -74.34703 | 22076 ft | 405 kts | 220° |
| 2026-05-05 01:01 | 39.88325 | -74.36895 | 22491 ft | 410 kts | 219° |
| 2026-05-05 01:01 | 39.86015 | -74.39099 | 22988 ft | 412 kts | 219° |
| 2026-05-05 01:01 | 39.83690 | -74.41308 | 23473 ft | 415 kts | 219° |
| 2026-05-05 01:02 | 39.81378 | -74.43574 | 23868 ft | 417 kts | 223° |
| 2026-05-05 01:02 | 39.79282 | -74.46171 | 24255 ft | 417 kts | 228° |
| 2026-05-05 01:02 | 39.77261 | -74.48884 | 24651 ft | 419 kts | 229° |
| 2026-05-05 01:02 | 39.75239 | -74.51631 | 25029 ft | 421 kts | 229° |
| 2026-05-05 01:03 | 39.73204 | -74.54389 | 25398 ft | 424 kts | 229° |
| 2026-05-05 01:03 | 39.71150 | -74.57153 | 25774 ft | 427 kts | 229° |
| 2026-05-05 01:03 | 39.69073 | -74.59926 | 26146 ft | 429 kts | 228° |
| 2026-05-05 01:03 | 39.66983 | -74.62703 | 26504 ft | 431 kts | 228° |
| 2026-05-05 01:04 | 39.64904 | -74.65454 | 26843 ft | 434 kts | 228° |
| 2026-05-05 01:04 | 39.60650 | -74.71067 | 27519 ft | 439 kts | 228° |
| 2026-05-05 01:04 | 39.58504 | -74.73895 | 27848 ft | 441 kts | 228° |
| 2026-05-05 01:05 | 39.56347 | -74.76734 | 28181 ft | 443 kts | 227° |
| 2026-05-05 01:05 | 39.54182 | -74.79582 | 28497 ft | 445 kts | 227° |
| 2026-05-05 01:05 | 39.52007 | -74.82441 | 28804 ft | 448 kts | 227° |
| 2026-05-05 01:05 | 39.49813 | -74.85321 | 29102 ft | 450 kts | 227° |
| 2026-05-05 01:06 | 39.47609 | -74.88212 | 29388 ft | 452 kts | 227° |
| 2026-05-05 01:06 | 39.45402 | -74.91106 | 29740 ft | 452 kts | 227° |
| 2026-05-05 01:06 | 39.43188 | -74.94004 | 30135 ft | 451 kts | 227° |
| 2026-05-05 01:06 | 39.40987 | -74.96883 | 30525 ft | 449 kts | 227° |
| 2026-05-05 01:07 | 39.38794 | -74.99750 | 30886 ft | 448 kts | 227° |
| 2026-05-05 01:07 | 39.36601 | -75.02615 | 31213 ft | 448 kts | 227° |
| 2026-05-05 01:07 | 39.34411 | -75.05475 | 31528 ft | 448 kts | 227° |
| 2026-05-05 01:07 | 39.32223 | -75.08328 | 31849 ft | 447 kts | 227° |
| 2026-05-05 01:08 | 39.30031 | -75.11181 | 32167 ft | 447 kts | 227° |
| 2026-05-05 01:08 | 39.27828 | -75.13993 | 32513 ft | 445 kts | 226° |
| 2026-05-05 01:08 | 39.25609 | -75.16766 | 32929 ft | 442 kts | 226° |
| 2026-05-05 01:08 | 39.23399 | -75.19517 | 33260 ft | 441 kts | 226° |
| 2026-05-05 01:09 | 39.21186 | -75.22265 | 33524 ft | 442 kts | 226° |
| 2026-05-05 01:09 | 39.18971 | -75.25020 | 33793 ft | 442 kts | 226° |
| 2026-05-05 01:09 | 39.16785 | -75.27745 | 34089 ft | 440 kts | 226° |
| 2026-05-05 01:09 | 39.14585 | -75.30490 | 34388 ft | 438 kts | 226° |
| 2026-05-05 01:10 | 39.12401 | -75.33216 | 34661 ft | 437 kts | 226° |
| 2026-05-05 01:10 | 39.10252 | -75.35896 | 34907 ft | 436 kts | 226° |
| 2026-05-05 01:10 | 39.08076 | -75.38602 | 35229 ft | 433 kts | 226° |
| 2026-05-05 01:10 | 39.05801 | -75.41200 | 35537 ft | 434 kts | 218° |
| 2026-05-05 01:11 | 39.03198 | -75.43102 | 35714 ft | 439 kts | 206° |
| 2026-05-05 01:11 | 39.00290 | -75.44357 | 35854 ft | 445 kts | 195° |
| 2026-05-05 01:11 | 38.94106 | -75.45310 | 35914 ft | 449 kts | 188° |
| 2026-05-05 01:12 | 38.87899 | -75.46060 | 35938 ft | 447 kts | 189° |
| 2026-05-05 01:12 | 38.81721 | -75.46896 | 35955 ft | 446 kts | 189° |
| 2026-05-05 01:13 | 38.75559 | -75.47766 | 35963 ft | 445 kts | 189° |
| 2026-05-05 01:13 | 38.70446 | -75.48479 | 35962 ft | 445 kts | 189° |
| 2026-05-05 01:14 | 38.64288 | -75.49307 | 35959 ft | 444 kts | 189° |
| 2026-05-05 01:14 | 38.58143 | -75.50131 | 35968 ft | 444 kts | 189° |
| 2026-05-05 01:15 | 38.51994 | -75.50960 | 35975 ft | 444 kts | 189° |
| 2026-05-05 01:15 | 38.45842 | -75.51791 | 35980 ft | 444 kts | 189° |
| 2026-05-05 01:16 | 38.39696 | -75.52618 | 35974 ft | 444 kts | 189° |
| 2026-05-05 01:16 | 38.33713 | -75.54237 | 35989 ft | 436 kts | 205° |
| 2026-05-05 01:17 | 38.28475 | -75.57967 | 35996 ft | 430 kts | 217° |
| 2026-05-05 01:17 | 38.23564 | -75.62320 | 35983 ft | 430 kts | 218° |
| 2026-05-05 01:18 | 38.18643 | -75.66660 | 35979 ft | 431 kts | 218° |
| 2026-05-05 01:18 | 38.13708 | -75.70967 | 35976 ft | 431 kts | 217° |
| 2026-05-05 01:19 | 38.08758 | -75.75262 | 35978 ft | 431 kts | 217° |
| 2026-05-05 01:19 | 38.03807 | -75.79548 | 35970 ft | 431 kts | 217° |
| 2026-05-05 01:20 | 37.98856 | -75.83828 | 35977 ft | 430 kts | 217° |
| 2026-05-05 01:20 | 37.93939 | -75.88072 | 35982 ft | 431 kts | 217° |
| 2026-05-05 01:21 | 37.88987 | -75.92340 | 35993 ft | 431 kts | 217° |
| 2026-05-05 01:21 | 37.84031 | -75.96605 | 35985 ft | 431 kts | 217° |
| 2026-05-05 01:22 | 37.79071 | -76.00865 | 35979 ft | 431 kts | 218° |
| 2026-05-05 01:22 | 37.74119 | -76.05113 | 35982 ft | 430 kts | 217° |
| 2026-05-05 01:23 | 37.69171 | -76.09352 | 35975 ft | 429 kts | 217° |
| 2026-05-05 01:23 | 37.64231 | -76.13579 | 35982 ft | 429 kts | 217° |
| 2026-05-05 01:24 | 37.59291 | -76.17794 | 35979 ft | 429 kts | 218° |
| 2026-05-05 01:24 | 37.54355 | -76.22004 | 35977 ft | 428 kts | 218° |
| 2026-05-05 01:25 | 37.49423 | -76.26210 | 35975 ft | 428 kts | 218° |
| 2026-05-05 01:25 | 37.44488 | -76.30416 | 35981 ft | 428 kts | 218° |
| 2026-05-05 01:26 | 37.39550 | -76.34618 | 35969 ft | 429 kts | 218° |
| 2026-05-05 01:26 | 37.34607 | -76.38816 | 35973 ft | 428 kts | 218° |
| 2026-05-05 01:27 | 37.29671 | -76.43002 | 35980 ft | 428 kts | 218° |
| 2026-05-05 01:27 | 37.24733 | -76.47184 | 35998 ft | 428 kts | 218° |
| 2026-05-05 01:28 | 37.19800 | -76.51354 | 35997 ft | 428 kts | 218° |
| 2026-05-05 01:28 | 37.14866 | -76.55519 | 35987 ft | 427 kts | 218° |
| 2026-05-05 01:29 | 37.09930 | -76.59678 | 35988 ft | 427 kts | 218° |
| 2026-05-05 01:29 | 37.04992 | -76.63833 | 35991 ft | 428 kts | 218° |
| 2026-05-05 01:30 | 37.00052 | -76.67983 | 35991 ft | 428 kts | 218° |
| 2026-05-05 01:30 | 36.95105 | -76.72132 | 35980 ft | 428 kts | 218° |
| 2026-05-05 01:31 | 36.90163 | -76.76270 | 36010 ft | 427 kts | 218° |
| 2026-05-05 01:31 | 36.85242 | -76.80384 | 36013 ft | 425 kts | 218° |
| 2026-05-05 01:32 | 36.80340 | -76.84474 | 36020 ft | 423 kts | 218° |
| 2026-05-05 01:32 | 36.75460 | -76.88542 | 36015 ft | 422 kts | 218° |
| 2026-05-05 01:33 | 36.70628 | -76.92563 | 36019 ft | 420 kts | 218° |
| 2026-05-05 01:33 | 36.65779 | -76.96592 | 36026 ft | 418 kts | 218° |
| 2026-05-05 01:34 | 36.60937 | -77.00609 | 36025 ft | 417 kts | 218° |
| 2026-05-05 01:34 | 36.56105 | -77.04613 | 36022 ft | 417 kts | 218° |
| 2026-05-05 01:35 | 36.51272 | -77.08612 | 36014 ft | 417 kts | 218° |
| 2026-05-05 01:35 | 36.46443 | -77.12601 | 36035 ft | 417 kts | 218° |
| 2026-05-05 01:36 | 36.41617 | -77.16582 | 36037 ft | 417 kts | 218° |
| 2026-05-05 01:36 | 36.36788 | -77.20563 | 36050 ft | 417 kts | 218° |
| 2026-05-05 01:37 | 36.31955 | -77.24536 | 36038 ft | 417 kts | 218° |
| 2026-05-05 01:37 | 36.27304 | -77.28783 | 36038 ft | 414 kts | 223° |
| 2026-05-05 01:38 | 36.22807 | -77.33242 | 36043 ft | 414 kts | 223° |
| 2026-05-05 01:38 | 36.18298 | -77.37700 | 36035 ft | 415 kts | 223° |
| 2026-05-05 01:39 | 36.13762 | -77.42131 | 36038 ft | 416 kts | 222° |
| 2026-05-05 01:39 | 36.09211 | -77.46547 | 36041 ft | 416 kts | 222° |
| 2026-05-05 01:40 | 36.04650 | -77.50961 | 36040 ft | 417 kts | 223° |
| 2026-05-05 01:40 | 36.00083 | -77.55374 | 36047 ft | 417 kts | 223° |
| 2026-05-05 01:41 | 35.95512 | -77.59784 | 36043 ft | 417 kts | 222° |
| 2026-05-05 01:41 | 35.90936 | -77.64192 | 36048 ft | 417 kts | 222° |
| 2026-05-05 01:42 | 35.86356 | -77.68598 | 36035 ft | 418 kts | 223° |
| 2026-05-05 01:42 | 35.81776 | -77.72998 | 36048 ft | 417 kts | 223° |
| 2026-05-05 01:43 | 35.77192 | -77.77395 | 36044 ft | 418 kts | 223° |
| 2026-05-05 01:43 | 35.72607 | -77.81787 | 36038 ft | 418 kts | 222° |
| 2026-05-05 01:44 | 35.68050 | -77.86145 | 36041 ft | 418 kts | 222° |
| 2026-05-05 01:44 | 35.63459 | -77.90529 | 36055 ft | 418 kts | 223° |
| 2026-05-05 01:45 | 35.58875 | -77.94900 | 36072 ft | 417 kts | 223° |
| 2026-05-05 01:45 | 35.54291 | -77.99264 | 36084 ft | 417 kts | 222° |
| 2026-05-05 01:46 | 35.49710 | -78.03620 | 36080 ft | 417 kts | 222° |
| 2026-05-05 01:46 | 35.45123 | -78.07975 | 36088 ft | 417 kts | 222° |
| 2026-05-05 01:47 | 35.40535 | -78.12325 | 36074 ft | 417 kts | 222° |
| 2026-05-05 01:47 | 35.35949 | -78.16669 | 36060 ft | 417 kts | 222° |
| 2026-05-05 01:48 | 35.31361 | -78.21009 | 36064 ft | 417 kts | 222° |
| 2026-05-05 01:48 | 35.26765 | -78.25345 | 36059 ft | 417 kts | 222° |
| 2026-05-05 01:49 | 35.22165 | -78.29672 | 36059 ft | 417 kts | 222° |
| 2026-05-05 01:49 | 35.17567 | -78.33994 | 36051 ft | 417 kts | 222° |
| 2026-05-05 01:50 | 35.12963 | -78.38319 | 36095 ft | 417 kts | 222° |
| 2026-05-05 01:50 | 35.08365 | -78.42635 | 36095 ft | 417 kts | 222° |
| 2026-05-05 01:51 | 35.03763 | -78.46947 | 36096 ft | 417 kts | 222° |
| 2026-05-05 01:51 | 34.99159 | -78.51256 | 36100 ft | 417 kts | 222° |
| 2026-05-05 01:52 | 34.94553 | -78.55560 | 36074 ft | 417 kts | 222° |
| 2026-05-05 01:52 | 34.89952 | -78.59852 | 36080 ft | 417 kts | 222° |
| 2026-05-05 01:53 | 34.85349 | -78.64142 | 36078 ft | 416 kts | 222° |
| 2026-05-05 01:53 | 34.80778 | -78.68395 | 36102 ft | 417 kts | 222° |
| 2026-05-05 01:54 | 34.76139 | -78.72707 | 36091 ft | 417 kts | 222° |
| 2026-05-05 01:54 | 34.71558 | -78.76957 | 36042 ft | 417 kts | 222° |
| 2026-05-05 01:55 | 34.66949 | -78.81227 | 36064 ft | 417 kts | 221° |
| 2026-05-05 01:55 | 34.62339 | -78.85492 | 36075 ft | 417 kts | 221° |
| 2026-05-05 01:56 | 34.57726 | -78.89757 | 36073 ft | 417 kts | 221° |
| 2026-05-05 01:56 | 34.53109 | -78.94021 | 36074 ft | 417 kts | 221° |
| 2026-05-05 01:57 | 34.48486 | -78.98282 | 36054 ft | 417 kts | 221° |
| 2026-05-05 01:57 | 34.43870 | -79.02549 | 36077 ft | 417 kts | 221° |
| 2026-05-05 01:58 | 34.39166 | -79.06686 | 36093 ft | 419 kts | 219° |
| 2026-05-05 01:58 | 34.34380 | -79.10723 | 36104 ft | 419 kts | 219° |
| 2026-05-05 01:59 | 34.29609 | -79.14791 | 36102 ft | 420 kts | 219° |
| 2026-05-05 01:59 | 34.24878 | -79.18924 | 36075 ft | 419 kts | 222° |
| 2026-05-05 02:00 | 34.20363 | -79.23347 | 36101 ft | 418 kts | 223° |
| 2026-05-05 02:00 | 34.16640 | -79.27056 | 36111 ft | 417 kts | 223° |
| 2026-05-05 02:01 | 34.12147 | -79.31500 | 36111 ft | 418 kts | 223° |
| 2026-05-05 02:01 | 34.07641 | -79.35926 | 36110 ft | 418 kts | 223° |
| 2026-05-05 02:02 | 34.03132 | -79.40342 | 36107 ft | 418 kts | 223° |
| 2026-05-05 02:02 | 33.98622 | -79.44754 | 36096 ft | 417 kts | 223° |
| 2026-05-05 02:03 | 33.94116 | -79.49158 | 36110 ft | 417 kts | 223° |
| 2026-05-05 02:03 | 33.89612 | -79.53556 | 36099 ft | 417 kts | 223° |
| 2026-05-05 02:04 | 33.85096 | -79.57931 | 36095 ft | 417 kts | 222° |
| 2026-05-05 02:04 | 33.80509 | -79.62213 | 36095 ft | 417 kts | 221° |
| 2026-05-05 02:05 | 33.75910 | -79.66471 | 36087 ft | 417 kts | 221° |
| 2026-05-05 02:05 | 33.71350 | -79.70705 | 36106 ft | 417 kts | 221° |
| 2026-05-05 02:06 | 33.66763 | -79.74970 | 36118 ft | 417 kts | 222° |
| 2026-05-05 02:06 | 33.62175 | -79.79234 | 36120 ft | 417 kts | 221° |
| 2026-05-05 02:07 | 33.57586 | -79.83493 | 36118 ft | 418 kts | 221° |
| 2026-05-05 02:07 | 33.52986 | -79.87757 | 36088 ft | 418 kts | 221° |
| 2026-05-05 02:08 | 33.48390 | -79.92010 | 36103 ft | 418 kts | 221° |
| 2026-05-05 02:08 | 33.43790 | -79.96261 | 36105 ft | 418 kts | 221° |
| 2026-05-05 02:09 | 33.39192 | -80.00505 | 36112 ft | 418 kts | 221° |
| 2026-05-05 02:09 | 33.34586 | -80.04749 | 36114 ft | 418 kts | 221° |
| 2026-05-05 02:10 | 33.29980 | -80.08989 | 36117 ft | 418 kts | 221° |
| 2026-05-05 02:10 | 33.25375 | -80.13221 | 36117 ft | 417 kts | 221° |
| 2026-05-05 02:11 | 33.20773 | -80.17446 | 36120 ft | 418 kts | 221° |
| 2026-05-05 02:11 | 33.16160 | -80.21675 | 36105 ft | 418 kts | 221° |
| 2026-05-05 02:12 | 33.09243 | -80.28006 | 36101 ft | 418 kts | 221° |
| 2026-05-05 02:13 | 33.04622 | -80.32227 | 36103 ft | 419 kts | 221° |
| 2026-05-05 02:13 | 32.99996 | -80.36449 | 36107 ft | 419 kts | 221° |
| 2026-05-05 02:14 | 32.95368 | -80.40665 | 36114 ft | 419 kts | 221° |
| 2026-05-05 02:14 | 32.90736 | -80.44881 | 36116 ft | 419 kts | 221° |
| 2026-05-05 02:15 | 32.86132 | -80.49065 | 36099 ft | 419 kts | 221° |
| 2026-05-05 02:15 | 32.81494 | -80.53276 | 36102 ft | 420 kts | 221° |
| 2026-05-05 02:16 | 32.76854 | -80.57484 | 36101 ft | 419 kts | 222° |
| 2026-05-05 02:16 | 32.72216 | -80.61683 | 36105 ft | 419 kts | 222° |
| 2026-05-05 02:17 | 32.67578 | -80.65938 | 36122 ft | 425 kts | 223° |
| 2026-05-05 02:17 | 32.62888 | -80.70322 | 36120 ft | 433 kts | 223° |
| 2026-05-05 02:18 | 32.58130 | -80.74762 | 36112 ft | 436 kts | 223° |
| 2026-05-05 02:18 | 32.53347 | -80.79208 | 36093 ft | 437 kts | 223° |
| 2026-05-05 02:19 | 32.48552 | -80.83656 | 36102 ft | 438 kts | 223° |
| 2026-05-05 02:19 | 32.43755 | -80.88101 | 36109 ft | 438 kts | 223° |
| 2026-05-05 02:20 | 32.39842 | -80.91723 | 36105 ft | 438 kts | 223° |
| 2026-05-05 02:20 | 32.35038 | -80.96168 | 36105 ft | 438 kts | 223° |
| 2026-05-05 02:21 | 32.30233 | -81.00603 | 36108 ft | 439 kts | 223° |
| 2026-05-05 02:21 | 32.25135 | -81.04643 | 36116 ft | 445 kts | 216° |
| 2026-05-05 02:22 | 32.19699 | -81.08181 | 36110 ft | 446 kts | 215° |
| 2026-05-05 02:22 | 32.14271 | -81.11732 | 36112 ft | 446 kts | 216° |
| 2026-05-05 02:23 | 32.08873 | -81.15321 | 36110 ft | 446 kts | 216° |
| 2026-05-05 02:23 | 32.03476 | -81.18923 | 36032 ft | 445 kts | 217° |
| 2026-05-05 02:24 | 31.98153 | -81.22594 | 36066 ft | 443 kts | 217° |
| 2026-05-05 02:24 | 31.93116 | -81.26656 | 36084 ft | 434 kts | 227° |
| 2026-05-05 02:25 | 31.88686 | -81.31421 | 36081 ft | 432 kts | 230° |
| 2026-05-05 02:25 | 31.84306 | -81.36269 | 36096 ft | 433 kts | 230° |
| 2026-05-05 02:26 | 31.79850 | -81.41060 | 36094 ft | 434 kts | 229° |
| 2026-05-05 02:26 | 31.75360 | -81.45802 | 36093 ft | 433 kts | 229° |
| 2026-05-05 02:27 | 31.70865 | -81.50525 | 36095 ft | 433 kts | 229° |
| 2026-05-05 02:27 | 31.66372 | -81.55242 | 36095 ft | 433 kts | 229° |
| 2026-05-05 02:28 | 31.61881 | -81.59956 | 36113 ft | 433 kts | 229° |
| 2026-05-05 02:28 | 31.57387 | -81.64666 | 36118 ft | 433 kts | 229° |
| 2026-05-05 02:29 | 31.52922 | -81.69343 | 36109 ft | 434 kts | 230° |
| 2026-05-05 02:29 | 31.48421 | -81.74048 | 36114 ft | 434 kts | 230° |
| 2026-05-05 02:30 | 31.43916 | -81.78752 | 36120 ft | 434 kts | 230° |
| 2026-05-05 02:30 | 31.39149 | -81.83184 | 36109 ft | 448 kts | 219° |
| 2026-05-05 02:31 | 31.33727 | -81.86819 | 36108 ft | 450 kts | 218° |
| 2026-05-05 02:31 | 31.28292 | -81.90438 | 36098 ft | 450 kts | 219° |
| 2026-05-05 02:32 | 31.22869 | -81.94088 | 36089 ft | 449 kts | 219° |
| 2026-05-05 02:32 | 31.17461 | -81.97747 | 36079 ft | 449 kts | 219° |
| 2026-05-05 02:33 | 31.12048 | -82.01410 | 36082 ft | 450 kts | 219° |
| 2026-05-05 02:33 | 31.06630 | -82.05070 | 36084 ft | 450 kts | 219° |
| 2026-05-05 02:34 | 31.01207 | -82.08728 | 36111 ft | 450 kts | 219° |
| 2026-05-05 02:34 | 30.95782 | -82.12382 | 36111 ft | 450 kts | 219° |
| 2026-05-05 02:35 | 30.90347 | -82.16038 | 36117 ft | 451 kts | 219° |
| 2026-05-05 02:35 | 30.84905 | -82.19695 | 36121 ft | 452 kts | 219° |
| 2026-05-05 02:36 | 30.79454 | -82.23353 | 36121 ft | 453 kts | 219° |
| 2026-05-05 02:36 | 30.73997 | -82.27013 | 36123 ft | 453 kts | 219° |
| 2026-05-05 02:37 | 30.68532 | -82.30657 | 36131 ft | 455 kts | 217° |
| 2026-05-05 02:37 | 30.65527 | -82.31995 | 36118 ft | 476 kts | 199° |
| 2026-05-05 02:37 | 30.62203 | -82.32503 | 36154 ft | 484 kts | 194° |
| 2026-05-05 02:38 | 30.55478 | -82.33232 | 36133 ft | 486 kts | 194° |
| 2026-05-05 02:38 | 30.48739 | -82.33991 | 36135 ft | 486 kts | 194° |
| 2026-05-05 02:39 | 30.42191 | -82.34786 | 36124 ft | 468 kts | 195° |
| 2026-05-05 02:39 | 30.35750 | -82.35603 | 36133 ft | 465 kts | 195° |
| 2026-05-05 02:40 | 30.29285 | -82.36424 | 36131 ft | 464 kts | 195° |
| 2026-05-05 02:40 | 30.22877 | -82.37229 | 36125 ft | 463 kts | 195° |
| 2026-05-05 02:41 | 30.16484 | -82.38000 | 35575 ft | 474 kts | 192° |
| 2026-05-05 02:41 | 30.13180 | -82.38031 | 35237 ft | 474 kts | 186° |
| 2026-05-05 02:41 | 30.09881 | -82.37831 | 34803 ft | 474 kts | 184° |
| 2026-05-05 02:41 | 30.06603 | -82.37552 | 34405 ft | 471 kts | 184° |
| 2026-05-05 02:42 | 30.03338 | -82.37273 | 33944 ft | 469 kts | 185° |
| 2026-05-05 02:42 | 30.00095 | -82.37025 | 33497 ft | 465 kts | 185° |
| 2026-05-05 02:42 | 29.96882 | -82.36810 | 33086 ft | 461 kts | 186° |
| 2026-05-05 02:42 | 29.93696 | -82.36619 | 32669 ft | 456 kts | 186° |
| 2026-05-05 02:43 | 29.90537 | -82.36442 | 32279 ft | 452 kts | 186° |
| 2026-05-05 02:43 | 29.87404 | -82.36272 | 31854 ft | 449 kts | 186° |
| 2026-05-05 02:43 | 29.84306 | -82.36104 | 31497 ft | 444 kts | 186° |
| 2026-05-05 02:43 | 29.81227 | -82.35936 | 31120 ft | 441 kts | 186° |
| 2026-05-05 02:44 | 29.78177 | -82.35769 | 30746 ft | 437 kts | 186° |
| 2026-05-05 02:44 | 29.75148 | -82.35603 | 30373 ft | 434 kts | 186° |
| 2026-05-05 02:44 | 29.72142 | -82.35438 | 29967 ft | 431 kts | 186° |
| 2026-05-05 02:44 | 29.69162 | -82.35274 | 29536 ft | 427 kts | 186° |
| 2026-05-05 02:45 | 29.66212 | -82.35113 | 29151 ft | 422 kts | 186° |
| 2026-05-05 02:45 | 29.63291 | -82.34952 | 28748 ft | 418 kts | 186° |
| 2026-05-05 02:45 | 29.60402 | -82.34792 | 28333 ft | 414 kts | 186° |
| 2026-05-05 02:45 | 29.57543 | -82.34634 | 28009 ft | 408 kts | 186° |
| 2026-05-05 02:46 | 29.54724 | -82.34476 | 27754 ft | 403 kts | 186° |
| 2026-05-05 02:46 | 29.51946 | -82.34321 | 27479 ft | 397 kts | 186° |
| 2026-05-05 02:46 | 29.49200 | -82.34171 | 27224 ft | 394 kts | 186° |
| 2026-05-05 02:46 | 29.46468 | -82.34024 | 26952 ft | 392 kts | 186° |
| 2026-05-05 02:47 | 29.43758 | -82.33876 | 26600 ft | 389 kts | 185° |
| 2026-05-05 02:47 | 29.41059 | -82.33726 | 26238 ft | 387 kts | 185° |
| 2026-05-05 02:47 | 29.38379 | -82.33525 | 25894 ft | 386 kts | 183° |
| 2026-05-05 02:47 | 29.36610 | -82.33330 | 25672 ft | 385 kts | 182° |
| 2026-05-05 02:48 | 29.33951 | -82.32997 | 25319 ft | 384 kts | 181° |
| 2026-05-05 02:48 | 29.30447 | -82.32543 | 24816 ft | 382 kts | 181° |
| 2026-05-05 02:48 | 29.27815 | -82.32207 | 24467 ft | 380 kts | 181° |
| 2026-05-05 02:48 | 29.25191 | -82.31881 | 24104 ft | 379 kts | 181° |
| 2026-05-05 02:49 | 29.22572 | -82.31561 | 23737 ft | 378 kts | 181° |
| 2026-05-05 02:49 | 29.19961 | -82.31247 | 23315 ft | 377 kts | 180° |
| 2026-05-05 02:49 | 29.18204 | -82.31036 | 23047 ft | 375 kts | 180° |
| 2026-05-05 02:49 | 29.15613 | -82.30727 | 22666 ft | 373 kts | 180° |
| 2026-05-05 02:50 | 29.13041 | -82.30420 | 22305 ft | 371 kts | 180° |
| 2026-05-05 02:50 | 29.10486 | -82.30116 | 21936 ft | 368 kts | 180° |
| 2026-05-05 02:50 | 29.07947 | -82.29814 | 21578 ft | 365 kts | 180° |
| 2026-05-05 02:50 | 29.05426 | -82.29515 | 21225 ft | 363 kts | 180° |
| 2026-05-05 02:51 | 29.02918 | -82.29217 | 20868 ft | 361 kts | 180° |
| 2026-05-05 02:51 | 29.00430 | -82.28922 | 20508 ft | 359 kts | 179° |
| 2026-05-05 02:51 | 28.97952 | -82.28629 | 20164 ft | 357 kts | 179° |
| 2026-05-05 02:51 | 28.95493 | -82.28338 | 19819 ft | 355 kts | 179° |
| 2026-05-05 02:52 | 28.93039 | -82.28047 | 19471 ft | 353 kts | 179° |
| 2026-05-05 02:52 | 28.90602 | -82.27759 | 19127 ft | 351 kts | 179° |
| 2026-05-05 02:52 | 28.88206 | -82.27476 | 18780 ft | 350 kts | 179° |
| 2026-05-05 02:52 | 28.85790 | -82.27191 | 18441 ft | 349 kts | 178° |
| 2026-05-05 02:53 | 28.83383 | -82.26907 | 18060 ft | 347 kts | 178° |
| 2026-05-05 02:53 | 28.80982 | -82.26624 | 17713 ft | 346 kts | 178° |
| 2026-05-05 02:53 | 28.78594 | -82.26343 | 17309 ft | 345 kts | 178° |
| 2026-05-05 02:53 | 28.76217 | -82.26062 | 16950 ft | 343 kts | 177° |
| 2026-05-05 02:54 | 28.73850 | -82.25787 | 16605 ft | 340 kts | 178° |
| 2026-05-05 02:54 | 28.71508 | -82.25685 | 16290 ft | 335 kts | 182° |
| 2026-05-05 02:54 | 28.69183 | -82.25681 | 15954 ft | 333 kts | 182° |
| 2026-05-05 02:54 | 28.66874 | -82.25672 | 15622 ft | 331 kts | 182° |
| 2026-05-05 02:55 | 28.64576 | -82.25649 | 15282 ft | 329 kts | 181° |
| 2026-05-05 02:55 | 28.62289 | -82.25615 | 14946 ft | 328 kts | 181° |
| 2026-05-05 02:55 | 28.60008 | -82.25572 | 14603 ft | 327 kts | 180° |
| 2026-05-05 02:55 | 28.57734 | -82.25527 | 14257 ft | 326 kts | 180° |
| 2026-05-05 02:56 | 28.55470 | -82.25482 | 13906 ft | 326 kts | 180° |
| 2026-05-05 02:56 | 28.53205 | -82.25438 | 13539 ft | 324 kts | 180° |
| 2026-05-05 02:56 | 28.50955 | -82.25400 | 13186 ft | 323 kts | 181° |
| 2026-05-05 02:56 | 28.48718 | -82.25371 | 12845 ft | 321 kts | 181° |
| 2026-05-05 02:57 | 28.46488 | -82.25344 | 12508 ft | 319 kts | 181° |
| 2026-05-05 02:57 | 28.44274 | -82.25316 | 12174 ft | 317 kts | 181° |
| 2026-05-05 02:57 | 28.42070 | -82.25288 | 11842 ft | 316 kts | 181° |
| 2026-05-05 02:57 | 28.39880 | -82.25259 | 11522 ft | 314 kts | 181° |
| 2026-05-05 02:58 | 28.37703 | -82.25254 | 11207 ft | 311 kts | 186° |
| 2026-05-05 02:58 | 28.35656 | -82.25914 | 10883 ft | 305 kts | 210° |
| 2026-05-05 02:58 | 28.33968 | -82.27320 | 10595 ft | 300 kts | 222° |
| 2026-05-05 02:58 | 28.32394 | -82.28851 | 10392 ft | 294 kts | 222° |
| 2026-05-05 02:59 | 28.30876 | -82.30323 | 10249 ft | 287 kts | 222° |
| 2026-05-05 02:59 | 28.29374 | -82.31773 | 10119 ft | 280 kts | 222° |
| 2026-05-05 02:59 | 28.27904 | -82.33182 | 9940 ft | 275 kts | 222° |
| 2026-05-05 02:59 | 28.26439 | -82.34582 | 9639 ft | 274 kts | 221° |
| 2026-05-05 03:00 | 28.24984 | -82.35971 | 9356 ft | 273 kts | 221° |
| 2026-05-05 03:00 | 28.23535 | -82.37351 | 9082 ft | 271 kts | 221° |
| 2026-05-05 03:00 | 28.22095 | -82.38722 | 8803 ft | 270 kts | 221° |
| 2026-05-05 03:00 | 28.20657 | -82.40080 | 8534 ft | 268 kts | 219° |
| 2026-05-05 03:01 | 28.18979 | -82.40980 | 8261 ft | 270 kts | 193° |
| 2026-05-05 03:01 | 28.17123 | -82.41195 | 8019 ft | 269 kts | 184° |
| 2026-05-05 03:01 | 28.15257 | -82.41232 | 7743 ft | 268 kts | 182° |
| 2026-05-05 03:01 | 28.13397 | -82.41244 | 7478 ft | 267 kts | 182° |
| 2026-05-05 03:02 | 28.11548 | -82.41261 | 7217 ft | 265 kts | 182° |
| 2026-05-05 03:02 | 28.09709 | -82.41288 | 6957 ft | 264 kts | 182° |
| 2026-05-05 03:02 | 28.07878 | -82.41321 | 6691 ft | 263 kts | 182° |
| 2026-05-05 03:02 | 28.06053 | -82.41360 | 6415 ft | 262 kts | 183° |
| 2026-05-05 03:03 | 28.04230 | -82.41403 | 6142 ft | 261 kts | 182° |
| 2026-05-05 03:03 | 28.02416 | -82.41445 | 5863 ft | 261 kts | 182° |
| 2026-05-05 03:03 | 28.00608 | -82.41488 | 5653 ft | 257 kts | 182° |
| 2026-05-05 03:03 | 27.98841 | -82.41530 | 5525 ft | 251 kts | 182° |
| 2026-05-05 03:04 | 27.97122 | -82.41569 | 5409 ft | 244 kts | 182° |
| 2026-05-05 03:04 | 27.95453 | -82.41604 | 5304 ft | 237 kts | 181° |
| 2026-05-05 03:04 | 27.93828 | -82.41638 | 5195 ft | 230 kts | 181° |
| 2026-05-05 03:04 | 27.92234 | -82.41670 | 5087 ft | 230 kts | 181° |
| 2026-05-05 03:05 | 27.90629 | -82.41704 | 4969 ft | 232 kts | 181° |
| 2026-05-05 03:05 | 27.89021 | -82.41744 | 4783 ft | 230 kts | 181° |
| 2026-05-05 03:05 | 27.87432 | -82.41786 | 4569 ft | 227 kts | 180° |
| 2026-05-05 03:05 | 27.85858 | -82.41827 | 4362 ft | 225 kts | 180° |
| 2026-05-05 03:06 | 27.84301 | -82.41868 | 4149 ft | 223 kts | 179° |
| 2026-05-05 03:06 | 27.82759 | -82.41907 | 3936 ft | 220 kts | 179° |
| 2026-05-05 03:06 | 27.81239 | -82.41945 | 3770 ft | 217 kts | 179° |
| 2026-05-05 03:06 | 27.79755 | -82.41982 | 3622 ft | 209 kts | 178° |
| 2026-05-05 03:07 | 27.78336 | -82.42020 | 3476 ft | 199 kts | 178° |
| 2026-05-05 03:07 | 27.76978 | -82.42055 | 3322 ft | 192 kts | 177° |
| 2026-05-05 03:07 | 27.75665 | -82.42088 | 3166 ft | 184 kts | 177° |
| 2026-05-05 03:07 | 27.74423 | -82.42262 | 2990 ft | 182 kts | 201° |
| 2026-05-05 03:08 | 27.73608 | -82.43345 | 3004 ft | 193 kts | 251° |
| 2026-05-05 03:08 | 27.73479 | -82.44875 | 3018 ft | 198 kts | 263° |
| 2026-05-05 03:08 | 27.73494 | -82.46437 | 2983 ft | 199 kts | 275° |
| 2026-05-05 03:08 | 27.73772 | -82.47956 | 2971 ft | 200 kts | 294° |
| 2026-05-05 03:09 | 27.74464 | -82.49308 | 3007 ft | 200 kts | 300° |
| 2026-05-05 03:09 | 27.75178 | -82.50663 | 3004 ft | 201 kts | 300° |
| 2026-05-05 03:09 | 27.75882 | -82.51997 | 3020 ft | 200 kts | 300° |
| 2026-05-05 03:09 | 27.76837 | -82.53104 | 3007 ft | 196 kts | 329° |
| 2026-05-05 03:10 | 27.78011 | -82.53880 | 3005 ft | 197 kts | 332° |
| 2026-05-05 03:10 | 27.79214 | -82.54619 | 3007 ft | 197 kts | 340° |
| 2026-05-05 03:10 | 27.80529 | -82.54770 | 3017 ft | 189 kts | 9° |
| 2026-05-05 03:10 | 27.81886 | -82.54708 | 2801 ft | 196 kts | 5° |
| 2026-05-05 03:11 | 27.83221 | -82.54682 | 2537 ft | 187 kts | 6° |
| 2026-05-05 03:11 | 27.84482 | -82.54645 | 2296 ft | 177 kts | 8° |
| 2026-05-05 03:11 | 27.85693 | -82.54605 | 2075 ft | 172 kts | 8° |
| 2026-05-05 03:11 | 27.86893 | -82.54560 | 1854 ft | 173 kts | 8° |
| 2026-05-05 03:12 | 27.88096 | -82.54519 | 1637 ft | 171 kts | 8° |
| 2026-05-05 03:12 | 27.89247 | -82.54480 | 1408 ft | 163 kts | 8° |
| 2026-05-05 03:12 | 27.90354 | -82.54442 | 1193 ft | 156 kts | 8° |
| 2026-05-05 03:12 | 27.91427 | -82.54406 | 1010 ft | 153 kts | 7° |
| 2026-05-05 03:13 | 27.92492 | -82.54367 | 813 ft | 154 kts | 5° |
| 2026-05-05 03:13 | 27.93589 | -82.54358 | 623 ft | 160 kts | 4° |
| 2026-05-05 03:13 | 27.94685 | -82.54312 | 389 ft | 155 kts | 4° |
| 2026-05-05 03:13 | 27.95768 | -82.54285 | 206 ft | 155 kts | 6° |
| 2026-05-05 03:14 | 27.96852 | -82.54222 | 55 ft | 153 kts | 4° |
| 2026-05-05 03:14 | 27.97800 | -82.54186 | 46 ft | 116 kts | 3° |
| 2026-05-05 03:14 | 27.98428 | -82.54160 | 50 ft | 50 kts | 2° |
| 2026-05-05 03:14 | 27.98648 | -82.54154 | 50 ft | 16 kts | 1° |
| 2026-05-05 03:15 | 27.98686 | -82.54062 | 48 ft | 16 kts | 108° |
| 2026-05-05 03:15 | 27.98662 | -82.53966 | 46 ft | 11 kts | 115° |
| 2026-05-05 03:15 | 27.98600 | -82.53953 | 47 ft | 7 kts | 184° |
| 2026-05-05 03:15 | 27.98549 | -82.53953 | 47 ft | 7 kts | 179° |
| 2026-05-05 03:16 | 27.98525 | -82.53954 | 47 ft | 0 kts | 181° |
| 2026-05-05 03:17 | 27.98513 | -82.53954 | 47 ft | 5 kts | 182° |
| 2026-05-05 03:17 | 27.98464 | -82.53956 | 47 ft | 9 kts | 182° |
| 2026-05-05 03:17 | 27.98388 | -82.53959 | 47 ft | 12 kts | 181° |
| 2026-05-05 03:17 | 27.98302 | -82.53962 | 46 ft | 12 kts | 182° |
| 2026-05-05 03:18 | 27.98216 | -82.53965 | 46 ft | 12 kts | 182° |
| 2026-05-05 03:18 | 27.98133 | -82.53968 | 46 ft | 12 kts | 181° |
| 2026-05-05 03:18 | 27.98050 | -82.53971 | 46 ft | 13 kts | 182° |
| 2026-05-05 03:18 | 27.97952 | -82.53974 | 45 ft | 15 kts | 182° |
| 2026-05-05 03:19 | 27.97716 | -82.53980 | 45 ft | 18 kts | 181° |
| 2026-05-05 03:19 | 27.97613 | -82.53924 | 44 ft | 18 kts | 122° |
| 2026-05-05 03:19 | 27.97550 | -82.53813 | 43 ft | 15 kts | 124° |
| 2026-05-05 03:20 | 27.97458 | -82.53800 | 46 ft | 14 kts | 169° |
| 2026-05-05 03:20 | 27.97396 | -82.53721 | 51 ft | 13 kts | 122° |
| 2026-05-05 03:20 | 27.97351 | -82.53630 | 52 ft | 13 kts | 114° |
| 2026-05-05 03:20 | 27.97322 | -82.53523 | 45 ft | 17 kts | 100° |
| 2026-05-05 03:21 | 27.97314 | -82.53384 | 43 ft | 15 kts | 92° |
| 2026-05-05 03:21 | 27.97370 | -82.53303 | 42 ft | 14 kts | 47° |
| 2026-05-05 03:21 | 27.97383 | -82.53198 | 42 ft | 14 kts | 92° |
| 2026-05-05 03:21 | 27.97383 | -82.53103 | 42 ft | 6 kts | 72° |
| 2026-05-05 03:22 | 27.97410 | -82.53096 | 42 ft | 4 kts | 329° |
| 2026-05-05 03:22 | 27.97431 | -82.53116 | 42 ft | 4 kts | 319° |
| 2026-05-05 03:22 | 27.97451 | -82.53136 | 42 ft | 4 kts | 320° |
| 2026-05-05 03:22 | 27.97472 | -82.53155 | 40 ft | 4 kts | 319° |
| 2026-05-05 03:23 | 27.97480 | -82.53163 | 41 ft | 0 kts | 319° |